Time;durP1;ratioP1;P1;durP2;ratioP2;P2;SDS_P1;SDS_P2;PMS_P1;PMS_P2;Temp;Humidity;BMP_temperature;BMP_pressure;BME280_temperature;BME280_humidity;BME280_pressure;Samples;Min_cycle;Max_cycle;Signal;HPM_P1;HPM_P2
2023/10/30 00:01:47;;;;;;;9.40;1.50;;;10.20;99.90;;;;;;4768790;30;20056;-61
2023/10/30 00:04:14;;;;;;;6.88;1.20;;;10.20;99.90;;;;;;4768933;30;20078;-61
2023/10/30 00:06:40;;;;;;;7.65;1.30;;;10.10;99.90;;;;;;4785196;30;20118;-60
2023/10/30 00:09:05;;;;;;;8.15;1.15;;;10.10;99.90;;;;;;4787001;29;20424;-60
2023/10/30 00:11:31;;;;;;;10.30;1.20;;;10.10;99.90;;;;;;4786851;29;20042;-61
2023/10/30 00:13:57;;;;;;;12.23;2.58;;;10.10;99.90;;;;;;4786609;29;20221;-60
2023/10/30 00:16:22;;;;;;;6.28;1.60;;;10.10;99.90;;;;;;4786795;29;20094;-61
2023/10/30 00:18:48;;;;;;;8.02;1.63;;;10.10;99.90;;;;;;4786783;29;20409;-61
2023/10/30 00:21:14;;;;;;;6.22;1.15;;;10.10;99.90;;;;;;4785562;30;20043;-60
2023/10/30 00:23:40;;;;;;;4.55;1.23;;;10.10;99.90;;;;;;4786494;29;20047;-61
2023/10/30 00:26:06;;;;;;;5.65;1.08;;;10.10;99.90;;;;;;4786587;29;20053;-60
2023/10/30 00:28:34;;;;;;;8.98;1.50;;;10.10;99.90;;;;;;4786847;29;20075;-60
2023/10/30 00:31:03;;;;;;;5.35;1.10;;;10.00;99.90;;;;;;4786380;29;20493;-60
2023/10/30 00:33:29;;;;;;;6.05;1.08;;;10.00;99.90;;;;;;4786926;29;20039;-60
2023/10/30 00:35:54;;;;;;;7.63;2.30;;;10.00;99.90;;;;;;4786611;29;20508;-60
2023/10/30 00:38:20;;;;;;;5.68;1.42;;;10.00;99.90;;;;;;4786914;29;20472;-61
2023/10/30 00:40:46;;;;;;;5.78;1.27;;;10.00;99.90;;;;;;4786500;29;20512;-60
2023/10/30 00:43:11;;;;;;;6.35;1.10;;;10.00;99.90;;;;;;4785665;29;20408;-60
2023/10/30 00:45:37;;;;;;;8.98;1.40;;;9.90;99.90;;;;;;4786805;29;20055;-60
2023/10/30 00:48:03;;;;;;;7.60;1.38;;;9.90;99.90;;;;;;4786255;30;20079;-61
2023/10/30 00:50:32;;;;;;;6.60;1.10;;;9.90;99.90;;;;;;4785285;30;20043;-60
2023/10/30 00:52:58;;;;;;;6.10;1.10;;;9.90;99.90;;;;;;4786569;29;20058;-60
2023/10/30 00:55:24;;;;;;;7.03;1.15;;;9.80;99.90;;;;;;4786567;29;20051;-60
2023/10/30 00:57:49;;;;;;;6.03;1.10;;;9.80;99.90;;;;;;4786197;29;20107;-60
2023/10/30 01:00:15;;;;;;;6.53;1.10;;;9.80;99.90;;;;;;4786582;29;20430;-61
2023/10/30 01:02:41;;;;;;;5.70;1.25;;;9.70;99.90;;;;;;4785347;29;20055;-61
2023/10/30 01:05:08;;;;;;;6.68;1.13;;;9.80;99.90;;;;;;4772089;30;20408;-61
2023/10/30 01:07:34;;;;;;;4.45;1.20;;;9.70;99.90;;;;;;4770660;30;20051;-60
2023/10/30 01:10:00;;;;;;;5.43;1.10;;;9.70;99.90;;;;;;4771704;30;20044;-61
2023/10/30 01:12:25;;;;;;;6.57;0.93;;;9.70;99.90;;;;;;4770410;30;20126;-61
2023/10/30 01:14:51;;;;;;;7.43;1.17;;;9.60;99.90;;;;;;4771657;30;20127;-61
2023/10/30 01:17:17;;;;;;;7.18;1.17;;;9.60;99.90;;;;;;4771674;30;20230;-61
2023/10/30 01:19:43;;;;;;;5.45;1.42;;;9.60;99.90;;;;;;4771500;30;20054;-60
2023/10/30 01:22:08;;;;;;;6.50;1.23;;;9.60;99.90;;;;;;4771618;30;20055;-61
2023/10/30 01:24:34;;;;;;;6.47;1.00;;;9.50;99.90;;;;;;4771316;30;20054;-58
2023/10/30 01:27:00;;;;;;;8.05;1.45;;;9.50;99.90;;;;;;4771469;30;20082;-60
2023/10/30 01:29:25;;;;;;;5.97;1.23;;;9.50;99.90;;;;;;4771579;30;20044;-61
2023/10/30 01:31:51;;;;;;;5.35;1.50;;;9.60;99.90;;;;;;4770352;30;20046;-60
2023/10/30 01:34:17;;;;;;;5.78;1.25;;;9.60;99.90;;;;;;4771677;30;20060;-60
2023/10/30 01:36:42;;;;;;;4.50;0.95;;;9.60;99.90;;;;;;4771404;30;20051;-60
2023/10/30 01:39:08;;;;;;;8.75;1.10;;;9.60;99.90;;;;;;4771784;30;20138;-60
2023/10/30 01:41:34;;;;;;;3.65;0.90;;;9.60;99.90;;;;;;4771370;30;20079;-60
2023/10/30 01:43:59;;;;;;;4.93;1.00;;;9.50;99.90;;;;;;4771091;30;20047;-60
2023/10/30 01:46:25;;;;;;;5.10;0.95;;;9.60;99.90;;;;;;4771109;30;20078;-61
2023/10/30 01:48:51;;;;;;;4.85;0.95;;;9.60;99.90;;;;;;4770904;30;20139;-60
2023/10/30 01:51:17;;;;;;;3.10;1.00;;;9.60;99.90;;;;;;4771060;30;20393;-61
2023/10/30 01:53:43;;;;;;;5.38;0.90;;;9.60;99.90;;;;;;4770986;30;20487;-60
2023/10/30 01:56:10;;;;;;;3.30;0.80;;;9.60;99.90;;;;;;4771310;30;20109;-60
2023/10/30 01:58:36;;;;;;;3.05;0.90;;;9.70;99.90;;;;;;4771032;30;20421;-61
2023/10/30 02:01:02;;;;;;;3.35;0.93;;;9.60;99.90;;;;;;4770853;30;20489;-61
2023/10/30 02:03:28;;;;;;;4.13;0.77;;;9.60;99.90;;;;;;4769833;30;20090;-60
2023/10/30 02:05:54;;;;;;;4.18;0.90;;;9.60;99.90;;;;;;4771164;30;20485;-60
2023/10/30 02:08:21;;;;;;;3.10;0.68;;;9.60;99.90;;;;;;4770798;30;20043;-60
2023/10/30 02:10:46;;;;;;;4.47;0.85;;;9.50;99.90;;;;;;4770791;30;20458;-60
2023/10/30 02:13:12;;;;;;;4.18;0.90;;;9.50;99.90;;;;;;4770643;30;20083;-60
2023/10/30 02:15:38;;;;;;;5.40;0.80;;;9.50;99.90;;;;;;4769529;30;20087;-61
2023/10/30 02:18:04;;;;;;;1.60;0.70;;;9.50;99.90;;;;;;4770812;30;20040;-60
2023/10/30 02:20:30;;;;;;;7.20;0.95;;;9.50;99.90;;;;;;4770667;30;20519;-60
2023/10/30 02:22:56;;;;;;;3.35;0.95;;;9.40;99.90;;;;;;4770450;30;20498;-60
2023/10/30 02:25:22;;;;;;;5.95;1.10;;;9.50;99.90;;;;;;4769092;30;20126;-61
2023/10/30 02:27:52;;;;;;;4.93;1.15;;;9.40;99.90;;;;;;4770579;30;20071;-60
2023/10/30 02:30:18;;;;;;;6.97;1.08;;;9.40;99.90;;;;;;4769608;30;20390;-61
2023/10/30 02:32:46;;;;;;;5.13;1.15;;;9.40;99.90;;;;;;4770789;30;20050;-61
2023/10/30 02:35:13;;;;;;;3.92;1.10;;;9.40;99.90;;;;;;4769100;30;20121;-60
2023/10/30 02:37:39;;;;;;;3.65;1.17;;;9.30;99.90;;;;;;4769167;30;20052;-60
2023/10/30 02:40:05;;;;;;;4.05;1.27;;;9.30;99.90;;;;;;4770385;30;20044;-60
2023/10/30 02:42:31;;;;;;;6.43;1.42;;;9.30;99.90;;;;;;4770253;30;20055;-61
2023/10/30 02:44:57;;;;;;;11.45;2.15;;;9.20;99.90;;;;;;4769953;30;20524;-61
2023/10/30 02:47:24;;;;;;;6.55;1.45;;;9.20;99.90;;;;;;4770225;30;20040;-60
2023/10/30 02:49:50;;;;;;;6.53;2.30;;;9.20;99.90;;;;;;4770081;30;20052;-61
2023/10/30 02:52:16;;;;;;;6.68;1.65;;;9.20;99.90;;;;;;4770077;30;20378;-60
2023/10/30 02:54:41;;;;;;;6.93;1.63;;;9.10;99.90;;;;;;4770125;30;20071;-59
2023/10/30 02:57:07;;;;;;;5.07;1.70;;;9.20;99.90;;;;;;4770277;30;20055;-60
2023/10/30 02:59:32;;;;;;;7.43;2.15;;;9.20;99.90;;;;;;4769846;30;20448;-61
2023/10/30 03:01:58;;;;;;;6.72;2.22;;;9.20;99.90;;;;;;4769717;30;20051;-61
2023/10/30 03:04:24;;;;;;;9.00;2.20;;;9.20;99.90;;;;;;4769774;30;20056;-60
2023/10/30 03:06:50;;;;;;;6.38;1.63;;;9.10;99.90;;;;;;4770020;30;20035;-62
2023/10/30 03:09:16;;;;;;;9.00;2.05;;;9.00;99.90;;;;;;4769847;30;20048;-60
2023/10/30 03:11:42;;;;;;;7.40;2.22;;;9.10;99.90;;;;;;4769699;30;20051;-61
2023/10/30 03:14:07;;;;;;;13.63;2.30;;;9.10;99.90;;;;;;4769814;30;20112;-61
2023/10/30 03:16:33;;;;;;;7.35;1.88;;;9.10;99.90;;;;;;4769873;30;20468;-61
2023/10/30 03:18:59;;;;;;;9.85;2.15;;;9.10;99.90;;;;;;4769715;30;20066;-61
2023/10/30 03:21:24;;;;;;;9.48;2.00;;;9.20;99.90;;;;;;4769674;30;20128;-60
2023/10/30 03:23:50;;;;;;;6.13;1.98;;;9.20;99.90;;;;;;4769262;30;20126;-61
2023/10/30 03:26:16;;;;;;;9.50;2.40;;;9.20;99.90;;;;;;4769615;30;20404;-60
2023/10/30 03:28:42;;;;;;;7.80;2.20;;;9.20;99.90;;;;;;4769622;30;20048;-60
2023/10/30 03:31:11;;;;;;;12.70;2.10;;;9.20;99.90;;;;;;4769540;30;20039;-60
2023/10/30 03:33:37;;;;;;;8.45;2.13;;;9.10;99.90;;;;;;4769435;30;20105;-60
2023/10/30 03:36:03;;;;;;;9.45;1.90;;;9.20;99.90;;;;;;4769494;30;20040;-61
2023/10/30 03:38:29;;;;;;;9.32;2.10;;;9.20;99.90;;;;;;4769251;30;20374;-60
2023/10/30 03:40:55;;;;;;;7.32;2.15;;;9.20;99.90;;;;;;4769287;30;20054;-60
2023/10/30 03:43:20;;;;;;;8.07;2.45;;;9.20;99.90;;;;;;4768118;30;20075;-61
2023/10/30 03:45:46;;;;;;;11.65;2.13;;;9.20;99.90;;;;;;4769494;30;20147;-61
2023/10/30 03:48:12;;;;;;;11.15;1.85;;;9.20;99.90;;;;;;4769024;30;20051;-61
2023/10/30 03:50:37;;;;;;;9.23;2.25;;;9.20;99.90;;;;;;4769474;30;20047;-61
2023/10/30 03:53:03;;;;;;;8.13;2.47;;;9.30;99.90;;;;;;4769225;30;20051;-61
2023/10/30 03:55:29;;;;;;;13.35;2.28;;;9.20;99.90;;;;;;4769200;30;20044;-61
2023/10/30 03:57:54;;;;;;;7.97;2.20;;;9.20;99.90;;;;;;4769067;30;20059;-61
2023/10/30 04:00:20;;;;;;;7.68;2.00;;;9.20;99.90;;;;;;4768809;30;20064;-60
2023/10/30 04:02:46;;;;;;;13.95;2.75;;;9.30;99.90;;;;;;4769083;30;20058;-60
2023/10/30 04:05:12;;;;;;;10.00;2.17;;;9.20;99.90;;;;;;4768585;30;20058;-61
2023/10/30 04:07:38;;;;;;;11.88;2.55;;;9.20;99.90;;;;;;4768861;30;20048;-60
2023/10/30 04:10:04;;;;;;;10.10;2.40;;;9.20;99.90;;;;;;4768851;30;20509;-60
2023/10/30 04:12:30;;;;;;;11.27;2.47;;;9.20;99.90;;;;;;4767427;30;20062;-60
2023/10/30 04:14:55;;;;;;;10.40;2.58;;;9.20;99.90;;;;;;4782627;30;20052;-61
2023/10/30 04:17:21;;;;;;;11.20;2.00;;;9.20;99.90;;;;;;4768757;30;20058;-60
2023/10/30 04:19:47;;;;;;;8.80;2.38;;;9.20;99.90;;;;;;4769269;30;20496;-61
2023/10/30 04:22:12;;;;;;;10.65;1.80;;;9.30;99.90;;;;;;4768739;30;20097;-60
2023/10/30 04:24:38;;;;;;;11.40;1.92;;;9.20;99.90;;;;;;4768462;30;20055;-60
2023/10/30 04:27:04;;;;;;;11.77;2.53;;;9.20;99.90;;;;;;4752908;30;20127;-60
2023/10/30 04:29:29;;;;;;;11.75;2.00;;;9.20;99.90;;;;;;4768910;30;20079;-60
2023/10/30 04:31:55;;;;;;;8.23;2.33;;;9.30;99.90;;;;;;4769094;30;20082;-60
2023/10/30 04:34:21;;;;;;;12.30;2.13;;;9.30;99.90;;;;;;4768655;30;20097;-60
2023/10/30 04:36:47;;;;;;;13.93;2.53;;;9.20;99.90;;;;;;4770652;30;20062;-61
2023/10/30 04:39:13;;;;;;;11.73;1.92;;;9.30;99.90;;;;;;4772665;30;20083;-61
2023/10/30 04:41:39;;;;;;;11.75;2.65;;;9.30;99.90;;;;;;4772375;30;20512;-61
2023/10/30 04:44:06;;;;;;;8.93;1.77;;;9.30;99.90;;;;;;4772516;30;20488;-61
2023/10/30 04:46:31;;;;;;;10.13;2.42;;;9.30;99.90;;;;;;4772292;30;20040;-61
2023/10/30 04:48:57;;;;;;;9.13;2.28;;;9.30;99.90;;;;;;4772646;30;20474;-61
2023/10/30 04:51:24;;;;;;;11.05;1.90;;;9.30;99.90;;;;;;4771998;30;20047;-60
2023/10/30 04:53:49;;;;;;;10.80;2.28;;;9.30;99.90;;;;;;4772252;30;20548;-61
2023/10/30 04:56:15;;;;;;;10.02;2.30;;;9.20;99.90;;;;;;4772209;30;20059;-61
2023/10/30 04:58:41;;;;;;;9.65;2.00;;;9.30;99.90;;;;;;4770922;30;20570;-60
2023/10/30 05:01:10;;;;;;;12.65;2.10;;;9.30;99.90;;;;;;4771896;30;20532;-60
2023/10/30 05:03:37;;;;;;;9.68;1.70;;;9.40;99.90;;;;;;4772498;30;20055;-61
2023/10/30 05:06:03;;;;;;;9.05;2.00;;;9.50;99.90;;;;;;4771728;30;20490;-61
2023/10/30 05:08:28;;;;;;;8.63;1.70;;;9.50;99.90;;;;;;4771868;30;20493;-61
2023/10/30 05:10:54;;;;;;;12.45;2.03;;;9.50;99.90;;;;;;4771716;30;20059;-60
2023/10/30 05:13:20;;;;;;;10.82;2.00;;;9.50;99.90;;;;;;4771849;30;20134;-61
2023/10/30 05:15:46;;;;;;;10.98;2.00;;;9.50;99.90;;;;;;4771804;30;20150;-61
2023/10/30 05:18:13;;;;;;;8.38;1.50;;;9.50;99.90;;;;;;4771852;30;20066;-61
2023/10/30 05:20:38;;;;;;;10.25;2.05;;;9.50;99.90;;;;;;4771840;30;20047;-60
2023/10/30 05:23:04;;;;;;;9.65;1.80;;;9.50;99.90;;;;;;4770379;30;20050;-61
2023/10/30 05:25:30;;;;;;;8.73;2.03;;;9.40;99.90;;;;;;4771605;30;20059;-60
2023/10/30 05:27:57;;;;;;;8.43;2.22;;;9.40;99.90;;;;;;4771343;30;20051;-60
2023/10/30 05:30:22;;;;;;;11.75;2.17;;;9.40;99.90;;;;;;4771845;30;20482;-61
2023/10/30 05:32:48;;;;;;;12.35;1.90;;;9.40;99.90;;;;;;4771741;30;20044;-61
2023/10/30 05:35:14;;;;;;;12.68;1.88;;;9.30;99.90;;;;;;4771295;30;20113;-61
2023/10/30 05:37:40;;;;;;;7.35;1.88;;;9.30;99.90;;;;;;4771719;30;20044;-61
2023/10/30 05:40:07;;;;;;;14.13;1.80;;;9.20;99.90;;;;;;4771483;30;20736;-60
2023/10/30 05:42:34;;;;;;;13.68;2.25;;;9.20;99.90;;;;;;4771706;30;20142;-61
2023/10/30 05:45:00;;;;;;;9.68;1.88;;;9.20;99.90;;;;;;4755120;30;20054;-61
2023/10/30 05:47:25;;;;;;;13.55;1.80;;;9.20;99.90;;;;;;4770710;30;20048;-61
2023/10/30 05:49:51;;;;;;;11.90;2.20;;;9.20;99.90;;;;;;4771117;30;20052;-60
2023/10/30 05:52:17;;;;;;;10.68;2.53;;;9.20;99.90;;;;;;4771132;30;20043;-61
2023/10/30 05:54:43;;;;;;;9.88;1.85;;;9.10;99.90;;;;;;4771061;30;20074;-61
2023/10/30 05:57:10;;;;;;;9.25;1.77;;;9.20;99.90;;;;;;4771163;30;20463;-61
2023/10/30 05:59:36;;;;;;;11.35;2.45;;;9.10;99.90;;;;;;4771107;30;20043;-61
2023/10/30 06:02:02;;;;;;;12.68;1.70;;;9.10;99.90;;;;;;4769440;30;20417;-60
2023/10/30 06:04:27;;;;;;;11.65;1.90;;;9.10;99.90;;;;;;4770865;30;20058;-61
2023/10/30 06:06:53;;;;;;;9.52;1.67;;;9.00;99.90;;;;;;4770924;30;20486;-60
2023/10/30 06:09:19;;;;;;;11.48;1.80;;;9.10;99.90;;;;;;4770858;30;20404;-61
2023/10/30 06:11:48;;;;;;;9.80;1.90;;;9.10;99.90;;;;;;4768053;30;20126;-60
2023/10/30 06:14:15;;;;;;;11.23;2.03;;;9.00;99.90;;;;;;4769229;30;20074;-60
2023/10/30 06:16:41;;;;;;;12.55;1.70;;;9.00;99.90;;;;;;4769230;30;20379;-60
2023/10/30 06:19:07;;;;;;;12.25;1.63;;;8.90;99.90;;;;;;4769243;30;20123;-61
2023/10/30 06:21:33;;;;;;;11.20;2.00;;;8.90;99.90;;;;;;4769408;30;20044;-60
2023/10/30 06:23:58;;;;;;;10.50;1.77;;;8.90;99.90;;;;;;4769086;30;20043;-60
2023/10/30 06:26:24;;;;;;;10.32;2.13;;;8.90;99.90;;;;;;4769044;30;20075;-60
2023/10/30 06:28:50;;;;;;;10.60;1.65;;;8.90;99.90;;;;;;4769181;30;20050;-60
2023/10/30 06:31:16;;;;;;;10.63;2.33;;;8.90;99.90;;;;;;4769160;30;20134;-60
2023/10/30 06:33:43;;;;;;;7.55;2.38;;;9.00;99.90;;;;;;4769102;30;20086;-60
2023/10/30 06:36:09;;;;;;;7.65;1.67;;;8.90;99.90;;;;;;4768869;30;20493;-60
2023/10/30 06:38:36;;;;;;;10.77;1.83;;;8.90;99.90;;;;;;4769410;30;20442;-60
2023/10/30 06:41:03;;;;;;;10.63;1.90;;;8.80;99.90;;;;;;4768974;30;20063;-60
2023/10/30 06:43:29;;;;;;;9.45;1.90;;;8.90;99.90;;;;;;4768982;30;20500;-60
2023/10/30 06:46:02;;;;;;;10.45;1.75;;;8.90;99.90;;;;;;4768643;30;20406;-60
2023/10/30 06:48:27;;;;;;;9.75;1.63;;;8.90;99.90;;;;;;4767505;30;20051;-60
2023/10/30 06:50:54;;;;;;;8.73;2.20;;;8.90;99.90;;;;;;4768784;30;20051;-60
2023/10/30 06:53:20;;;;;;;12.82;2.10;;;8.90;99.90;;;;;;4769024;30;20050;-62
2023/10/30 06:55:45;;;;;;;12.80;2.35;;;9.00;99.90;;;;;;4767535;30;20529;-62
2023/10/30 06:58:11;;;;;;;14.63;2.47;;;9.00;99.90;;;;;;4768129;30;20122;-62
2023/10/30 07:00:37;;;;;;;12.73;2.00;;;9.00;99.90;;;;;;4767969;30;20115;-63
2023/10/30 07:03:03;;;;;;;10.52;1.95;;;9.00;99.90;;;;;;4768708;30;20063;-62
2023/10/30 07:05:29;;;;;;;11.38;1.70;;;9.10;99.90;;;;;;4768864;30;20604;-62
2023/10/30 07:07:54;;;;;;;7.78;1.80;;;9.20;99.90;;;;;;4768509;30;20044;-62
2023/10/30 07:10:20;;;;;;;12.80;2.00;;;9.20;99.90;;;;;;4768310;30;20402;-62
2023/10/30 07:12:46;;;;;;;11.98;3.28;;;9.30;99.90;;;;;;4768267;30;20094;-62
2023/10/30 07:15:12;;;;;;;10.65;1.98;;;9.40;99.90;;;;;;4768396;30;20059;-62
2023/10/30 07:17:37;;;;;;;9.05;1.92;;;9.40;99.90;;;;;;4768499;30;20047;-62
2023/10/30 07:20:03;;;;;;;16.63;2.65;;;9.50;99.90;;;;;;4768381;30;20051;-64
2023/10/30 07:22:29;;;;;;;10.55;1.92;;;9.50;99.90;;;;;;4768241;30;20135;-63
2023/10/30 07:25:00;;;;;;;11.80;1.88;;;9.60;99.90;;;;;;4768293;30;20131;-63
2023/10/30 07:27:26;;;;;;;13.75;2.05;;;9.60;99.90;;;;;;4768211;30;20494;-63
2023/10/30 07:29:52;;;;;;;11.95;2.13;;;9.70;99.90;;;;;;4768141;30;20048;-62
2023/10/30 07:32:17;;;;;;;11.30;2.05;;;9.70;99.90;;;;;;4766754;30;20550;-61
2023/10/30 07:34:44;;;;;;;13.68;2.10;;;9.80;99.90;;;;;;4768277;30;20058;-61
2023/10/30 07:37:10;;;;;;;7.70;1.73;;;9.80;99.90;;;;;;4767865;30;20079;-59
2023/10/30 07:39:36;;;;;;;10.05;2.03;;;9.90;99.90;;;;;;4768078;30;20050;-61
2023/10/30 07:42:02;;;;;;;12.45;2.30;;;10.00;99.90;;;;;;4766516;30;20051;-60
2023/10/30 07:44:27;;;;;;;9.68;1.92;;;10.00;99.90;;;;;;4766738;30;20080;-61
2023/10/30 07:46:53;;;;;;;11.48;2.40;;;10.10;99.90;;;;;;4768137;30;20114;-60
2023/10/30 07:49:19;;;;;;;7.97;2.22;;;10.20;99.90;;;;;;4766619;30;20043;-60
2023/10/30 07:51:45;;;;;;;10.90;2.05;;;10.30;99.90;;;;;;4768127;30;20047;-60
2023/10/30 07:54:11;;;;;;;9.80;2.15;;;10.40;99.90;;;;;;4767722;30;20118;-60
2023/10/30 07:56:37;;;;;;;10.90;1.95;;;10.30;99.90;;;;;;4767486;30;20442;-60
2023/10/30 07:59:06;;;;;;;17.58;2.50;;;10.40;99.90;;;;;;4767433;30;20055;-61
2023/10/30 08:01:36;;;;;;;10.30;2.28;;;10.50;99.90;;;;;;4767440;30;20109;-60
2023/10/30 08:04:02;;;;;;;8.32;1.83;;;10.60;99.90;;;;;;4767389;30;20090;-60
2023/10/30 08:06:27;;;;;;;12.40;1.58;;;10.60;99.90;;;;;;4767431;30;20043;-60
2023/10/30 08:08:53;;;;;;;8.18;1.98;;;10.70;99.90;;;;;;4767732;30;20043;-61
2023/10/30 08:11:19;;;;;;;9.32;2.20;;;10.70;99.90;;;;;;4767200;30;20059;-61
2023/10/30 08:13:45;;;;;;;9.77;2.45;;;10.80;99.90;;;;;;4767733;30;20135;-61
2023/10/30 08:16:11;;;;;;;12.75;2.08;;;10.80;99.90;;;;;;4767392;30;20102;-61
2023/10/30 08:18:38;;;;;;;12.77;1.73;;;10.80;99.90;;;;;;4767421;30;20117;-60
2023/10/30 08:21:04;;;;;;;11.50;1.85;;;10.80;99.90;;;;;;4767446;30;20059;-59
2023/10/30 08:23:30;;;;;;;11.95;1.90;;;10.80;99.90;;;;;;4767071;30;20134;-60
2023/10/30 08:25:56;;;;;;;8.43;1.70;;;10.90;99.90;;;;;;4767298;30;20052;-60
2023/10/30 08:28:22;;;;;;;11.30;1.73;;;10.90;99.90;;;;;;4768337;30;20489;-60
2023/10/30 08:30:48;;;;;;;9.70;1.45;;;11.00;99.90;;;;;;4765749;30;20127;-60
2023/10/30 08:33:14;;;;;;;10.45;1.83;;;11.00;99.90;;;;;;4766737;30;20080;-60
2023/10/30 08:35:39;;;;;;;9.38;1.80;;;11.00;99.90;;;;;;4765775;30;20048;-61
2023/10/30 08:38:05;;;;;;;12.13;1.90;;;11.10;99.90;;;;;;4765473;30;20520;-61
2023/10/30 08:40:31;;;;;;;10.65;1.80;;;11.10;99.90;;;;;;4766357;30;20171;-60
2023/10/30 08:42:57;;;;;;;11.77;2.60;;;11.10;99.90;;;;;;4766330;30;20517;-61
2023/10/30 08:45:22;;;;;;;11.10;2.22;;;11.10;99.90;;;;;;4766127;30;20054;-61
2023/10/30 08:47:48;;;;;;;10.30;1.90;;;11.20;99.90;;;;;;4766606;30;20048;-61
2023/10/30 08:50:14;;;;;;;11.38;1.65;;;11.20;99.90;;;;;;4766748;30;20043;-60
2023/10/30 08:52:40;;;;;;;12.05;2.20;;;11.20;99.90;;;;;;4767333;30;20474;-60
2023/10/30 08:55:07;;;;;;;9.85;2.05;;;11.30;99.90;;;;;;4765803;30;20079;-60
2023/10/30 08:57:32;;;;;;;9.80;1.60;;;11.40;99.90;;;;;;4767073;30;20062;-60
2023/10/30 08:59:58;;;;;;;12.98;2.10;;;11.40;99.90;;;;;;4767110;30;20126;-60
2023/10/30 09:02:24;;;;;;;8.50;2.00;;;11.50;99.90;;;;;;4766828;30;20059;-61
2023/10/30 09:04:50;;;;;;;8.95;1.80;;;11.50;99.90;;;;;;4766977;30;20081;-61
2023/10/30 09:07:16;;;;;;;10.68;1.65;;;11.60;99.90;;;;;;4767041;30;20075;-61
2023/10/30 09:09:42;;;;;;;11.00;2.08;;;11.60;99.90;;;;;;4767114;30;20397;-61
2023/10/30 09:12:08;;;;;;;15.60;2.33;;;11.80;99.90;;;;;;4766507;30;20460;-61
2023/10/30 09:14:35;;;;;;;7.65;1.90;;;11.80;99.90;;;;;;4766486;30;20565;-61
2023/10/30 09:17:00;;;;;;;9.25;2.10;;;11.90;99.90;;;;;;4766375;30;20512;-61
2023/10/30 09:19:27;;;;;;;9.95;1.85;;;12.00;99.90;;;;;;4766287;30;20043;-61
2023/10/30 09:21:53;;;;;;;9.75;2.10;;;12.00;99.90;;;;;;4767080;30;20048;-60
2023/10/30 09:24:18;;;;;;;11.35;2.05;;;12.00;99.90;;;;;;4769810;30;20059;-60
2023/10/30 09:26:44;;;;;;;10.13;1.90;;;12.10;99.90;;;;;;4769857;30;20138;-60
2023/10/30 09:29:10;;;;;;;14.88;2.20;;;12.10;99.90;;;;;;4769086;30;20051;-60
2023/10/30 09:31:36;;;;;;;9.73;1.80;;;12.00;99.90;;;;;;4769947;30;20044;-61
2023/10/30 09:34:03;;;;;;;12.13;2.20;;;12.00;99.90;;;;;;4767784;30;20066;-60
2023/10/30 09:36:29;;;;;;;10.43;2.35;;;11.90;99.90;;;;;;4770922;30;20437;-60
2023/10/30 09:38:55;;;;;;;11.25;2.17;;;12.00;99.90;;;;;;4769538;30;20051;-60
2023/10/30 09:41:21;;;;;;;9.35;2.42;;;12.00;99.90;;;;;;4769712;30;20054;-62
2023/10/30 09:43:50;;;;;;;9.60;2.20;;;12.00;99.90;;;;;;4770039;30;20060;-60
2023/10/30 09:46:17;;;;;;;8.32;1.92;;;12.10;99.90;;;;;;4768578;30;20056;-60
2023/10/30 09:48:48;;;;;;;14.65;1.90;;;12.20;99.90;;;;;;4783691;30;20051;-61
2023/10/30 09:51:14;;;;;;;12.38;2.42;;;12.30;99.90;;;;;;4769589;30;20382;-61
2023/10/30 09:53:41;;;;;;;11.00;1.98;;;12.30;99.90;;;;;;4769930;30;20043;-60
2023/10/30 09:56:07;;;;;;;11.32;2.22;;;12.40;99.90;;;;;;4769667;30;20488;-60
2023/10/30 09:58:34;;;;;;;12.13;2.15;;;12.50;99.90;;;;;;4769743;30;20062;-60
2023/10/30 10:01:00;;;;;;;10.30;2.00;;;12.50;99.90;;;;;;4769513;30;20178;-61
2023/10/30 10:03:26;;;;;;;6.28;1.77;;;12.50;99.90;;;;;;4769684;30;20417;-60
2023/10/30 10:05:59;;;;;;;11.35;2.10;;;12.50;99.90;;;;;;4769398;30;20529;-61
2023/10/30 10:08:26;;;;;;;9.60;2.35;;;12.60;99.90;;;;;;4769480;30;20048;-61
2023/10/30 10:11:02;;;;;;;15.20;2.53;;;12.60;99.90;;;;;;4769683;30;20050;-60
2023/10/30 10:13:37;;;;;;;9.60;2.10;;;12.80;99.90;;;;;;4769444;30;20044;-61
2023/10/30 10:16:04;;;;;;;9.23;2.20;;;12.70;99.90;;;;;;4769539;30;20144;-61
2023/10/30 10:18:31;;;;;;;13.98;2.42;;;12.80;99.90;;;;;;4769435;30;20413;-60
2023/10/30 10:21:03;;;;;;;11.38;2.28;;;13.00;99.90;;;;;;4769262;30;20051;-61
2023/10/30 10:23:31;;;;;;;10.45;2.10;;;13.10;99.90;;;;;;4768247;30;20395;-61
2023/10/30 10:25:58;;;;;;;9.85;1.70;;;13.10;99.90;;;;;;4767873;30;20499;-61
2023/10/30 10:28:24;;;;;;;9.05;2.55;;;13.10;99.90;;;;;;4769240;30;20058;-61
2023/10/30 10:30:52;;;;;;;11.20;1.73;;;13.20;99.90;;;;;;4767964;30;20401;-61
2023/10/30 10:33:27;;;;;;;9.38;1.80;;;13.10;99.90;;;;;;4768257;30;20059;-60
2023/10/30 10:35:57;;;;;;;10.43;2.03;;;13.10;98.00;;;;;;4768631;30;20513;-59
2023/10/30 10:38:23;;;;;;;11.45;1.88;;;13.10;99.90;;;;;;4768964;30;20123;-61
2023/10/30 10:40:50;;;;;;;10.20;1.58;;;13.00;99.90;;;;;;4767821;30;20086;-61
2023/10/30 10:43:18;;;;;;;10.60;1.77;;;13.10;99.90;;;;;;4768693;30;20055;-60
2023/10/30 10:45:46;;;;;;;13.25;2.30;;;13.20;99.90;;;;;;4768923;30;20464;-60
2023/10/30 10:48:12;;;;;;;10.25;2.05;;;13.20;99.90;;;;;;4768723;30;20077;-60
2023/10/30 10:50:38;;;;;;;13.73;1.92;;;13.30;99.90;;;;;;4769010;30;20405;-61
2023/10/30 10:53:06;;;;;;;8.98;1.70;;;13.40;96.10;;;;;;4767439;30;20048;-60
2023/10/30 10:55:40;;;;;;;9.68;2.10;;;13.40;96.90;;;;;;4768583;30;20112;-60
2023/10/30 10:58:10;;;;;;;11.40;2.10;;;13.50;94.40;;;;;;4768665;30;20131;-60
2023/10/30 11:00:47;;;;;;;9.23;1.63;;;13.50;98.10;;;;;;4768210;30;20129;-59
2023/10/30 11:03:13;;;;;;;10.70;2.30;;;13.60;98.30;;;;;;4768451;30;20060;-61
2023/10/30 11:05:40;;;;;;;12.88;1.67;;;13.60;96.50;;;;;;4768257;30;20051;-61
2023/10/30 11:08:32;;;;;;;15.20;2.25;;;13.80;92.00;;;;;;4768694;30;20048;-61
2023/10/30 11:11:29;;;;;;;10.50;2.08;;;13.80;83.10;;;;;;4768404;30;20047;-60
2023/10/30 11:14:04;;;;;;;10.63;1.80;;;14.10;93.20;;;;;;4768320;30;20056;-61
2023/10/30 11:16:59;;;;;;;8.82;1.60;;;14.20;94.40;;;;;;4768255;30;20059;-60
2023/10/30 11:19:26;;;;;;;13.85;1.98;;;14.30;94.70;;;;;;4767334;30;20073;-61
2023/10/30 11:21:52;;;;;;;13.32;1.75;;;14.30;91.10;;;;;;4769601;30;20056;-61
2023/10/30 11:24:38;;;;;;;13.73;2.42;;;14.10;79.10;;;;;;4768200;30;20062;-61
2023/10/30 11:27:25;;;;;;;10.43;2.00;;;14.10;84.00;;;;;;4769377;30;20485;-61
2023/10/30 11:30:08;;;;;;;10.98;2.10;;;14.10;80.00;;;;;;4769793;30;20047;-61
2023/10/30 11:32:52;;;;;;;;;;;14.10;74.50;;;;;;4768545;30;20108;-61
2023/10/30 11:35:22;;;;;;;9.70;1.70;;;14.10;74.70;;;;;;4769915;30;19922;-60
2023/10/30 11:37:47;;;;;;;11.95;1.92;;;14.00;78.90;;;;;;4768141;30;20090;-60
2023/10/30 11:40:15;;;;;;;11.23;2.78;;;13.80;73.00;;;;;;4769611;30;20079;-60
2023/10/30 11:42:43;;;;;;;8.88;1.80;;;13.90;86.20;;;;;;4769094;30;20527;-61
2023/10/30 11:45:16;;;;;;;11.38;3.10;;;13.90;94.00;;;;;;4769052;30;20459;-61
2023/10/30 11:47:45;;;;;;;13.50;2.08;;;13.80;91.10;;;;;;4767964;30;20136;-60
2023/10/30 11:50:11;;;;;;;12.65;2.47;;;13.80;90.70;;;;;;4769366;30;20043;-60
2023/10/30 11:52:38;;;;;;;13.32;2.30;;;13.70;92.90;;;;;;4769293;30;20119;-61
2023/10/30 11:55:08;;;;;;;7.25;1.60;;;13.70;91.60;;;;;;4768809;30;20139;-60
2023/10/30 11:57:34;;;;;;;13.50;2.17;;;13.70;96.80;;;;;;4767610;30;20048;-61
2023/10/30 12:00:01;;;;;;;8.02;1.42;;;13.80;95.90;;;;;;4769475;30;20525;-60
2023/10/30 12:02:27;;;;;;;13.13;2.10;;;13.80;96.60;;;;;;4768138;30;20098;-60
2023/10/30 12:04:53;;;;;;;12.60;1.90;;;13.80;96.20;;;;;;4782033;30;20051;-61
2023/10/30 12:07:18;;;;;;;13.73;1.77;;;13.70;93.60;;;;;;4768196;30;20130;-60
2023/10/30 12:09:44;;;;;;;8.10;1.88;;;13.70;96.60;;;;;;4766975;30;20054;-61
2023/10/30 12:12:10;;;;;;;10.75;1.88;;;13.70;96.10;;;;;;4768337;30;20040;-61
2023/10/30 12:14:36;;;;;;;8.30;1.95;;;13.60;90.90;;;;;;4768705;30;20095;-61
2023/10/30 12:17:04;;;;;;;14.02;2.17;;;13.70;94.90;;;;;;4768965;30;20051;-61
2023/10/30 12:19:30;;;;;;;11.07;2.17;;;13.60;93.40;;;;;;4768755;30;20524;-62
2023/10/30 12:21:56;;;;;;;11.98;2.25;;;13.60;93.30;;;;;;4767923;30;20087;-60
2023/10/30 12:24:27;;;;;;;11.40;2.00;;;13.60;94.50;;;;;;4768814;30;20044;-61
2023/10/30 12:26:52;;;;;;;12.35;2.13;;;13.50;94.80;;;;;;4768676;30;20047;-61
2023/10/30 12:29:22;;;;;;;10.13;1.83;;;13.50;94.70;;;;;;4769086;30;20055;-60
2023/10/30 12:31:52;;;;;;;12.57;2.85;;;13.40;95.80;;;;;;4768650;30;20472;-60
2023/10/30 12:34:22;;;;;;;12.27;2.70;;;13.50;96.20;;;;;;4768687;30;20108;-61
2023/10/30 12:36:48;;;;;;;9.35;1.80;;;13.40;99.90;;;;;;4769047;30;20082;-61
2023/10/30 12:39:17;;;;;;;13.88;2.72;;;13.30;98.30;;;;;;4768776;30;20501;-61
2023/10/30 12:41:44;;;;;;;11.02;2.13;;;13.30;99.90;;;;;;4768680;30;20086;-60
2023/10/30 12:44:10;;;;;;;9.63;1.83;;;13.30;99.90;;;;;;4768102;30;20154;-61
2023/10/30 12:46:36;;;;;;;14.35;3.15;;;13.30;99.90;;;;;;4768700;30;20101;-61